createdAt,value
2023-05-10T05:30:03.297Z,47.53
2023-05-10T05:31:09.123Z,47.31
2023-05-10T05:32:04.291Z,47.12
2023-05-10T05:33:03.138Z,46.93
2023-05-10T05:34:04.484Z,46.72
2023-05-10T05:35:02.874Z,46.56
2023-05-10T05:36:02.755Z,46.60
2023-05-10T05:37:02.667Z,46.60
2023-05-10T05:38:02.600Z,46.47
2023-05-10T05:39:04.087Z,46.47
2023-05-10T05:40:02.310Z,46.46
2023-05-10T05:41:02.184Z,46.20
2023-05-10T05:42:02.072Z,46.00
2023-05-10T05:43:02.009Z,45.83
2023-05-10T05:44:02.548Z,45.84
2023-05-10T05:45:01.834Z,46.49
2023-05-10T05:46:01.674Z,46.47
2023-05-10T05:47:01.573Z,46.44
2023-05-10T05:48:02.077Z,46.53
2023-05-10T05:49:01.387Z,46.58
2023-05-10T05:50:01.292Z,46.58
2023-05-10T05:51:01.213Z,46.54
2023-05-10T05:52:01.104Z,46.55
2023-05-10T05:53:01.099Z,46.38
2023-05-10T05:54:00.905Z,46.48
2023-05-10T05:55:00.837Z,46.51
2023-05-10T05:56:00.751Z,46.44
2023-05-10T05:57:01.523Z,46.42
2023-05-10T05:58:00.558Z,46.39
2023-05-10T05:59:00.472Z,46.42
2023-05-10T06:00:00.426Z,46.39
2023-05-10T06:01:00.273Z,46.42
2023-05-10T06:02:01.025Z,46.36
2023-05-10T06:03:00.324Z,46.39
2023-05-10T06:04:00.070Z,46.36
2023-05-10T06:04:59.917Z,46.37
2023-05-10T06:05:59.796Z,46.34
2023-05-10T06:07:00.509Z,46.35
2023-05-10T06:07:59.609Z,46.33
2023-05-10T06:08:59.622Z,46.34
2023-05-10T06:09:59.412Z,46.18
2023-05-10T06:11:01.003Z,46.18
2023-05-10T06:11:59.272Z,46.34
2023-05-10T06:12:59.184Z,46.36
2023-05-10T06:13:59.497Z,46.31
2023-05-10T06:14:58.948Z,46.29
2023-05-10T06:15:58.869Z,46.31
2023-05-10T06:16:58.815Z,46.29
2023-05-10T06:17:58.734Z,46.25
2023-05-10T06:18:58.557Z,46.28
2023-05-10T06:19:58.485Z,46.30
2023-05-10T06:20:58.373Z,46.24
2023-05-10T06:21:58.252Z,46.25
2023-05-10T06:22:58.173Z,46.43
2023-05-10T06:23:58.102Z,46.41
2023-05-10T06:24:58.012Z,46.25
2023-05-10T06:25:57.928Z,45.86
2023-05-10T06:26:57.851Z,45.99
2023-05-10T06:27:57.756Z,46.17
2023-05-10T06:28:59.540Z,46.28
2023-05-10T06:30:09.206Z,46.68
2023-05-10T06:30:57.451Z,46.38
2023-05-10T06:31:57.351Z,46.08
2023-05-10T06:32:57.305Z,45.69
2023-05-10T06:33:57.189Z,45.43
2023-05-10T06:34:57.151Z,45.24
2023-05-10T06:35:57.142Z,45.08
2023-05-10T06:36:56.983Z,45.06
2023-05-10T06:37:56.911Z,44.96
2023-05-10T06:38:58.536Z,44.37
2023-05-10T06:39:56.814Z,44.11
2023-05-10T06:40:56.773Z,43.83
2023-05-10T06:41:56.625Z,43.50
2023-05-10T06:42:56.556Z,43.44
2023-05-10T06:43:56.753Z,43.49
2023-05-10T06:44:56.291Z,43.59
2023-05-10T06:45:56.209Z,43.29
2023-05-10T06:46:57.047Z,43.31
2023-05-10T06:47:56.569Z,43.32
2023-05-10T06:48:55.812Z,43.52
2023-05-10T06:49:55.695Z,43.56
2023-05-10T06:50:56.409Z,43.56
2023-05-10T06:51:55.464Z,43.59
2023-05-10T06:52:55.334Z,43.42
2023-05-10T06:53:55.237Z,43.45
2023-05-10T06:54:55.138Z,43.59
2023-05-10T06:55:54.958Z,43.96
2023-05-10T06:56:54.845Z,43.83
2023-05-10T06:57:54.737Z,43.73
2023-05-10T06:58:54.643Z,43.64
2023-05-10T06:59:54.503Z,43.61
2023-05-10T07:00:54.463Z,43.71
2023-05-10T07:01:54.268Z,43.74
2023-05-10T07:02:54.140Z,43.63
2023-05-10T07:03:54.030Z,43.56
2023-05-10T07:04:53.921Z,43.68
2023-05-10T07:05:54.516Z,43.35
2023-05-10T07:06:54.009Z,42.98
2023-05-10T07:07:53.506Z,43.03
2023-05-10T07:08:53.388Z,43.01
2023-05-10T07:09:53.957Z,43.24
2023-05-10T07:10:53.166Z,43.21
2023-05-10T07:11:53.030Z,43.21
2023-05-10T07:12:52.984Z,43.43
2023-05-10T07:13:52.774Z,43.43
2023-05-10T07:14:52.658Z,43.52
2023-05-10T07:15:52.550Z,44.04
2023-05-10T07:16:54.950Z,44.48
2023-05-10T07:17:53.199Z,44.82
2023-05-10T07:18:52.336Z,44.72
2023-05-10T07:19:52.576Z,44.70
2023-05-10T07:20:52.119Z,44.73
2023-05-10T07:21:51.979Z,44.24
2023-05-10T07:22:51.888Z,43.76
2023-05-10T07:23:51.839Z,43.21
2023-05-10T07:24:51.703Z,42.98
2023-05-10T07:25:51.601Z,43.09
2023-05-10T07:27:02.544Z,43.56
2023-05-10T07:27:51.375Z,43.86
2023-05-10T07:28:51.279Z,44.16
2023-05-10T07:29:51.150Z,44.27
2023-05-10T07:30:51.105Z,44.06
2023-05-10T07:31:50.973Z,43.78
2023-05-10T07:32:50.805Z,43.56
2023-05-10T07:34:01.603Z,43.64
2023-05-10T07:34:50.522Z,43.74
2023-05-10T07:35:50.441Z,43.63
2023-05-10T07:36:51.083Z,43.71
2023-05-10T07:37:57.156Z,43.28
2023-05-10T07:38:50.025Z,43.43
2023-05-10T07:39:49.911Z,43.76
2023-05-10T07:40:50.455Z,43.97
2023-05-10T07:41:50.566Z,44.02
2023-05-10T07:42:49.556Z,43.98
2023-05-10T07:43:49.707Z,44.10
2023-05-10T07:44:49.404Z,43.96
2023-05-10T07:45:49.212Z,43.77
2023-05-10T07:46:49.071Z,43.71
2023-05-10T07:47:48.998Z,43.72
2023-05-10T07:48:48.896Z,43.74
2023-05-10T07:49:50.538Z,43.77
2023-05-10T07:50:49.514Z,43.55
2023-05-10T07:51:50.511Z,43.05
2023-05-10T07:52:48.739Z,42.64
2023-05-10T07:53:48.675Z,42.43
2023-05-10T07:54:50.492Z,42.46
2023-05-10T07:55:48.389Z,43.00
2023-05-10T07:56:48.367Z,43.36
2023-05-10T07:57:48.146Z,43.42
2023-05-10T07:58:48.021Z,43.52
2023-05-10T07:59:47.897Z,43.36
2023-05-10T08:00:50.553Z,42.89
2023-05-10T08:01:47.694Z,42.64
2023-05-10T08:02:47.700Z,42.45
2023-05-10T08:03:48.176Z,42.19
2023-05-10T08:04:48.448Z,41.99
2023-05-10T08:05:47.357Z,42.05
2023-05-10T08:06:47.318Z,42.34
2023-05-10T08:07:50.025Z,42.55
2023-05-10T08:08:47.130Z,42.85
2023-05-10T08:09:47.586Z,43.12
2023-05-10T08:10:46.983Z,43.30
2023-05-10T08:11:46.755Z,42.95
2023-05-10T08:12:46.628Z,42.98
2023-05-10T08:13:46.525Z,43.34
2023-05-10T08:14:46.396Z,43.48
2023-05-10T08:15:46.297Z,43.47
2023-05-10T08:16:46.150Z,43.66
2023-05-10T08:17:46.033Z,43.75
2023-05-10T08:18:46.001Z,44.05
2023-05-10T08:19:45.776Z,44.09
2023-05-10T08:20:46.667Z,43.95
2023-05-10T08:21:45.559Z,43.54
2023-05-10T08:22:45.498Z,43.35
2023-05-10T08:23:45.352Z,42.84
2023-05-10T08:24:45.142Z,42.76
2023-05-10T08:25:45.101Z,42.89
2023-05-10T08:26:44.904Z,42.63
2023-05-10T08:27:44.954Z,41.60
2023-05-10T08:28:44.803Z,41.08
2023-05-10T08:29:50.182Z,41.29
2023-05-10T08:30:45.549Z,41.46
2023-05-10T08:31:44.600Z,41.57
2023-05-10T08:32:44.358Z,41.43
2023-05-10T08:33:44.885Z,41.34
2023-05-10T08:34:44.114Z,41.48
2023-05-10T08:35:43.948Z,41.89
2023-05-10T08:36:43.832Z,42.15
2023-05-10T08:37:43.708Z,42.23
2023-05-10T08:38:44.599Z,42.41
2023-05-10T08:39:44.462Z,42.98
2023-05-10T08:40:43.343Z,43.42
2023-05-10T08:41:43.281Z,43.43
2023-05-10T08:42:43.092Z,43.39
2023-05-10T08:43:42.980Z,43.30
2023-05-10T08:44:49.435Z,43.44
2023-05-10T08:45:42.776Z,43.45
2023-05-10T08:46:42.688Z,43.66
2023-05-10T08:47:42.606Z,43.94
2023-05-10T08:48:43.390Z,44.11
2023-05-10T08:49:42.293Z,44.28
2023-05-10T08:50:50.080Z,44.22
2023-05-10T08:51:43.811Z,44.03
2023-05-10T08:52:41.979Z,43.87
2023-05-10T08:53:41.831Z,43.91
2023-05-10T08:54:41.699Z,43.76
2023-05-10T08:55:42.106Z,43.84
2023-05-10T08:56:43.030Z,43.98
2023-05-10T08:57:41.420Z,44.02
2023-05-10T08:58:41.235Z,43.88
2023-05-10T08:59:41.127Z,43.79
2023-05-10T09:00:42.012Z,43.67
2023-05-10T09:01:41.062Z,43.57
2023-05-10T09:02:43.572Z,43.27
2023-05-10T09:03:40.711Z,42.99
2023-05-10T09:04:40.582Z,43.06
2023-05-10T09:05:40.401Z,42.96
2023-05-10T09:06:40.287Z,43.02
2023-05-10T09:07:41.148Z,43.02
2023-05-10T09:08:40.046Z,42.89
2023-05-10T09:09:39.908Z,42.79
2023-05-10T09:10:39.789Z,42.79
2023-05-10T09:11:40.501Z,42.76
2023-05-10T09:12:40.746Z,42.74
2023-05-10T09:13:39.405Z,42.82
2023-05-10T09:14:39.437Z,42.86
2023-05-10T09:15:39.182Z,42.73
2023-05-10T09:16:39.088Z,43.02
2023-05-10T09:17:38.968Z,43.48
2023-05-10T09:18:38.933Z,43.66
2023-05-10T09:19:40.512Z,43.96
2023-05-10T09:20:38.683Z,44.20
2023-05-10T09:21:38.605Z,44.15
2023-05-10T09:22:39.508Z,44.21
2023-05-10T09:23:38.485Z,44.10
2023-05-10T09:24:38.416Z,43.95
2023-05-10T09:25:38.515Z,43.82
2023-05-10T09:26:38.311Z,43.89
2023-05-10T09:27:38.220Z,43.60
2023-05-10T09:28:38.150Z,43.74
2023-05-10T09:29:38.171Z,43.71
2023-05-10T09:30:39.196Z,43.85
2023-05-10T09:31:39.731Z,43.82
2023-05-10T09:32:37.942Z,43.80
2023-05-10T09:33:38.577Z,43.94
2023-05-10T09:34:38.443Z,43.87
2023-05-10T09:35:42.672Z,43.85
2023-05-10T09:36:38.592Z,43.89
2023-05-10T09:37:37.539Z,43.85
2023-05-10T09:38:37.362Z,43.89
2023-05-10T09:39:38.188Z,43.95
2023-05-10T09:40:38.002Z,43.99
2023-05-10T09:41:36.930Z,44.15
2023-05-10T09:42:39.540Z,44.10
2023-05-10T09:43:37.670Z,44.12
2023-05-10T09:44:37.470Z,44.12
2023-05-10T09:45:38.511Z,44.18
2023-05-10T09:46:36.517Z,44.31
2023-05-10T09:47:36.434Z,44.21
2023-05-10T09:48:36.358Z,44.23
2023-05-10T09:49:36.250Z,43.71
2023-05-10T09:50:36.201Z,43.21
2023-05-10T09:51:36.916Z,43.12
2023-05-10T09:52:41.095Z,43.41
2023-05-10T09:53:35.951Z,43.67
2023-05-10T09:54:35.822Z,43.73
2023-05-10T09:55:35.728Z,43.91
2023-05-10T09:56:35.573Z,43.97
2023-05-10T09:57:35.467Z,43.98
2023-05-10T09:58:36.004Z,43.97
2023-05-10T09:59:35.177Z,44.06
2023-05-10T10:00:35.075Z,44.09
2023-05-10T10:01:35.037Z,44.05
2023-05-10T10:02:35.015Z,43.90
2023-05-10T10:03:34.869Z,43.81
2023-05-10T10:04:34.845Z,44.13
2023-05-10T10:05:34.773Z,44.02
2023-05-10T10:06:34.668Z,44.00
2023-05-10T10:07:34.596Z,43.91
2023-05-10T10:08:34.547Z,43.96
2023-05-10T10:09:34.469Z,44.31
2023-05-10T10:10:34.449Z,44.13
2023-05-10T10:11:34.349Z,44.23
2023-05-10T10:12:34.287Z,44.07
2023-05-10T10:13:34.223Z,43.73
2023-05-10T10:14:34.159Z,43.84
2023-05-10T10:15:34.548Z,44.17
2023-05-10T10:16:34.047Z,44.17
2023-05-10T10:17:33.972Z,43.90
2023-05-10T10:18:34.011Z,43.94
2023-05-10T10:19:33.801Z,44.15
2023-05-10T10:20:33.750Z,44.09
2023-05-10T10:21:33.675Z,44.23
2023-05-10T10:22:33.598Z,44.23
2023-05-10T10:23:33.541Z,44.38
2023-05-10T10:24:33.493Z,44.45
2023-05-10T10:25:33.409Z,44.47
2023-05-10T10:26:33.327Z,44.49
2023-05-10T10:27:33.252Z,44.44
2023-05-10T10:28:33.183Z,44.51
2023-05-10T10:29:33.105Z,44.51
2023-05-10T10:30:33.051Z,44.75
2023-05-10T10:31:33.008Z,44.80
2023-05-10T10:32:32.932Z,44.82
2023-05-10T10:33:32.846Z,44.77
2023-05-10T10:34:32.757Z,44.11
2023-05-10T10:35:32.725Z,44.25
2023-05-10T10:36:32.637Z,44.37
2023-05-10T10:37:32.535Z,44.54
2023-05-10T10:38:32.466Z,44.55
2023-05-10T10:39:32.392Z,44.60
2023-05-10T10:40:34.636Z,44.61
2023-05-10T10:41:32.205Z,44.69
2023-05-10T10:42:33.070Z,44.72
2023-05-10T10:43:31.954Z,44.81
2023-05-10T10:44:31.868Z,44.88
2023-05-10T10:45:31.703Z,44.80
2023-05-10T10:46:31.645Z,44.84
2023-05-10T10:47:31.493Z,44.85
2023-05-10T10:48:31.365Z,44.81
2023-05-10T10:49:31.210Z,44.83
2023-05-10T10:50:31.103Z,44.84
2023-05-10T10:51:30.989Z,44.85
2023-05-10T10:52:30.929Z,44.86
2023-05-10T10:53:30.737Z,44.86
2023-05-10T10:54:30.629Z,44.86
2023-05-10T10:55:30.526Z,44.85
2023-05-10T10:56:30.458Z,44.85
2023-05-10T10:57:30.385Z,44.84
2023-05-10T10:58:30.301Z,44.84
2023-05-10T10:59:30.241Z,44.80
2023-05-10T11:00:30.214Z,44.68
2023-05-10T11:01:30.289Z,44.68
2023-05-10T11:02:31.359Z,44.74
2023-05-10T11:03:30.043Z,44.79
2023-05-10T11:04:30.008Z,44.67
2023-05-10T11:05:29.914Z,44.50
2023-05-10T11:06:29.830Z,44.44
2023-05-10T11:07:29.786Z,44.56
2023-05-10T11:08:29.748Z,44.59
2023-05-10T11:09:29.606Z,44.70
2023-05-10T11:10:29.548Z,44.75
2023-05-10T11:11:29.475Z,44.74
2023-05-10T11:12:29.385Z,44.78
2023-05-10T11:13:29.314Z,44.76
2023-05-10T11:14:29.245Z,44.78
2023-05-10T11:15:29.187Z,44.87
2023-05-10T11:16:29.149Z,44.89
2023-05-10T11:17:29.114Z,44.94
2023-05-10T11:18:28.968Z,45.00
2023-05-10T11:19:28.853Z,45.05
2023-05-10T11:20:28.797Z,45.09
2023-05-10T11:21:28.873Z,45.17
2023-05-10T11:22:28.643Z,45.16
2023-05-10T11:23:28.561Z,45.23
2023-05-10T11:24:28.489Z,45.25
2023-05-10T11:25:28.417Z,45.26
2023-05-10T11:26:28.332Z,45.31
2023-05-10T11:27:28.260Z,45.31
2023-05-10T11:28:28.195Z,45.34
2023-05-10T11:29:28.127Z,45.37
2023-05-10T11:30:28.041Z,45.40
2023-05-10T11:31:28.086Z,45.43
2023-05-10T11:32:27.914Z,45.45
2023-05-10T11:33:27.816Z,45.56
2023-05-10T11:34:27.731Z,45.51
2023-05-10T11:35:27.666Z,45.45
2023-05-10T11:36:27.601Z,45.38
2023-05-10T11:37:27.511Z,45.36
2023-05-10T11:38:27.458Z,45.28
2023-05-10T11:39:27.376Z,45.26
2023-05-10T11:40:27.293Z,45.24
2023-05-10T11:41:27.227Z,45.23
2023-05-10T11:42:27.144Z,45.16
2023-05-10T11:43:27.083Z,45.26
2023-05-10T11:44:27.009Z,45.12
2023-05-10T11:45:26.924Z,45.15
2023-05-10T11:46:26.914Z,45.02
2023-05-10T11:47:26.820Z,44.98
2023-05-10T11:48:26.715Z,44.86
2023-05-10T11:49:26.643Z,44.82
2023-05-10T11:50:26.559Z,44.78
2023-05-10T11:51:26.508Z,44.90
2023-05-10T11:52:27.015Z,44.95
2023-05-10T11:53:26.356Z,44.92
2023-05-10T11:54:26.264Z,44.88
2023-05-10T11:55:26.192Z,44.90
2023-05-10T11:56:26.124Z,44.86
2023-05-10T11:57:26.052Z,44.86
2023-05-10T11:58:25.966Z,44.82
2023-05-10T11:59:25.890Z,44.95
2023-05-10T12:00:25.820Z,45.01
2023-05-10T12:01:25.746Z,45.01
2023-05-10T12:02:25.760Z,45.00
2023-05-10T12:03:25.754Z,44.99
2023-05-10T12:04:25.544Z,45.02
2023-05-10T12:05:25.434Z,45.00
2023-05-10T12:06:25.368Z,44.96
2023-05-10T12:07:25.292Z,45.10
2023-05-10T12:08:25.226Z,45.00
2023-05-10T12:09:39.434Z,44.96
2023-05-10T12:10:26.042Z,44.93
2023-05-10T12:11:24.894Z,44.90
2023-05-10T12:12:24.775Z,44.92
2023-05-10T12:13:24.668Z,44.87
2023-05-10T12:14:24.542Z,44.84
2023-05-10T12:15:24.489Z,44.79
2023-05-10T12:16:24.381Z,44.83
2023-05-10T12:17:24.200Z,44.87
2023-05-10T12:18:24.078Z,47.64
2023-05-10T12:19:23.932Z,45.90
2023-05-10T12:20:23.832Z,45.83
2023-05-10T12:21:23.702Z,45.74
2023-05-10T12:22:23.597Z,45.73
2023-05-10T12:23:23.458Z,45.58
2023-05-10T12:24:23.365Z,45.59
2023-05-10T12:25:23.307Z,45.49
2023-05-10T12:26:23.200Z,45.45
2023-05-10T12:27:23.105Z,45.38
2023-05-10T12:28:23.024Z,45.26
2023-05-10T12:29:22.933Z,45.26
2023-05-10T12:30:22.854Z,45.16
2023-05-10T12:31:22.866Z,45.11
2023-05-10T12:32:22.700Z,45.10
2023-05-10T12:33:22.701Z,45.11
2023-05-10T12:34:22.533Z,45.08
2023-05-10T12:35:22.446Z,45.10
2023-05-10T12:36:22.371Z,45.11
2023-05-10T12:37:22.286Z,45.12
2023-05-10T12:38:22.204Z,45.13
2023-05-10T12:39:22.126Z,45.16
2023-05-10T12:40:22.047Z,45.27
2023-05-10T12:41:22.151Z,45.31
2023-05-10T12:42:21.886Z,45.44
2023-05-10T12:43:21.818Z,45.81
2023-05-10T12:44:21.764Z,45.98
2023-05-10T12:45:21.653Z,46.55
2023-05-10T12:46:21.597Z,46.30
2023-05-10T12:47:21.505Z,46.68
2023-05-10T12:48:21.435Z,46.51
2023-05-10T12:49:21.360Z,45.96
2023-05-10T12:50:21.266Z,45.81
2023-05-10T12:51:21.261Z,45.84
2023-05-10T12:52:21.120Z,45.85
2023-05-10T12:53:21.038Z,45.80
2023-05-10T12:54:20.974Z,45.81
2023-05-10T12:55:20.879Z,45.80
2023-05-10T12:56:20.787Z,45.80
2023-05-10T12:57:20.707Z,45.81
2023-05-10T12:58:34.313Z,45.83
2023-05-10T12:59:21.499Z,45.79
2023-05-10T13:00:20.378Z,45.81
2023-05-10T13:01:20.302Z,45.84
2023-05-10T13:02:20.154Z,45.82
2023-05-10T13:03:20.027Z,45.80
2023-05-10T13:04:19.933Z,45.84
2023-05-10T13:05:19.783Z,45.82
2023-05-10T13:06:19.651Z,45.76
2023-05-10T13:07:19.539Z,45.76
2023-05-10T13:08:19.409Z,45.79
2023-05-10T13:09:19.291Z,45.78
2023-05-10T13:10:19.496Z,45.76
2023-05-10T13:11:19.059Z,45.77
2023-05-10T13:12:18.927Z,45.72
2023-05-10T13:13:18.813Z,45.65
2023-05-10T13:14:18.686Z,45.59
2023-05-10T13:15:18.578Z,45.73
2023-05-10T13:16:18.556Z,45.73
2023-05-10T13:17:18.543Z,45.72
2023-05-10T13:18:18.413Z,45.73
2023-05-10T13:19:18.365Z,45.73
2023-05-10T13:20:18.408Z,45.71
2023-05-10T13:21:18.106Z,45.71
2023-05-10T13:22:25.606Z,45.64
2023-05-10T13:23:18.906Z,45.66
2023-05-10T13:24:17.765Z,45.61
2023-05-10T13:25:17.658Z,45.62
2023-05-10T13:26:17.518Z,45.59
2023-05-10T13:27:17.401Z,45.55
2023-05-10T13:28:17.291Z,45.51
2023-05-10T13:29:18.014Z,45.52
2023-05-10T13:30:18.271Z,45.50
2023-05-10T13:31:17.004Z,45.52
2023-05-10T13:32:16.783Z,45.45
2023-05-10T13:33:16.663Z,45.48
2023-05-10T13:34:16.548Z,45.44
2023-05-10T13:35:16.462Z,45.42
2023-05-10T13:36:16.290Z,45.35
2023-05-10T13:37:16.170Z,45.33
2023-05-10T13:38:16.061Z,45.35
2023-05-10T13:39:16.012Z,45.35
2023-05-10T13:40:16.046Z,45.27
2023-05-10T13:41:15.825Z,45.30
2023-05-10T13:42:15.746Z,45.27
2023-05-10T13:43:15.659Z,45.26
2023-05-10T13:44:15.598Z,45.27
2023-05-10T13:45:15.885Z,45.27
2023-05-10T13:46:15.460Z,45.30
2023-05-10T13:47:15.336Z,45.32
2023-05-10T13:48:15.257Z,45.31
2023-05-10T13:49:15.191Z,45.27
2023-05-10T13:50:15.116Z,45.26
2023-05-10T13:51:15.046Z,45.22
2023-05-10T13:52:14.957Z,45.23
2023-05-10T13:53:14.883Z,45.19
2023-05-10T13:54:14.882Z,45.24
2023-05-10T13:55:14.725Z,45.26
2023-05-10T13:56:14.645Z,45.22
2023-05-10T13:57:14.571Z,45.21
2023-05-10T13:58:14.474Z,45.19
2023-05-10T13:59:14.395Z,45.16
2023-05-10T14:00:14.315Z,45.19
2023-05-10T14:01:14.323Z,45.15
2023-05-10T14:02:14.221Z,45.14
2023-05-10T14:03:14.111Z,45.15
2023-05-10T14:04:14.010Z,45.10
2023-05-10T14:05:14.136Z,45.13
2023-05-10T14:06:13.853Z,45.12
2023-05-10T14:07:13.777Z,45.13
2023-05-10T14:08:13.715Z,45.09
2023-05-10T14:09:13.621Z,45.12
2023-05-10T14:10:13.548Z,45.11
2023-05-10T14:11:13.466Z,45.10
2023-05-10T14:12:13.392Z,45.38
2023-05-10T14:13:13.393Z,45.28
2023-05-10T14:14:13.252Z,45.19
2023-05-10T14:15:13.159Z,45.05
2023-05-10T14:16:13.104Z,44.90
2023-05-10T14:17:13.095Z,44.85
2023-05-10T14:18:12.924Z,44.73
2023-05-10T14:19:12.854Z,44.65
2023-05-10T14:20:12.789Z,44.53
2023-05-10T14:21:12.713Z,44.56
2023-05-10T14:22:12.648Z,44.45
2023-05-10T14:23:12.606Z,44.45
2023-05-10T14:24:12.507Z,44.33
2023-05-10T14:25:12.429Z,44.43
2023-05-10T14:26:12.347Z,44.44
2023-05-10T14:27:12.278Z,44.42
2023-05-10T14:28:12.252Z,44.37
2023-05-10T14:29:12.757Z,44.17
2023-05-10T14:30:12.077Z,44.21
2023-05-10T14:31:11.997Z,44.27
2023-05-10T14:32:11.968Z,44.34
2023-05-10T14:33:11.873Z,44.08
2023-05-10T14:34:11.770Z,44.11
2023-05-10T14:35:13.988Z,44.25
2023-05-10T14:36:11.568Z,44.35
2023-05-10T14:37:11.458Z,44.21
2023-05-10T14:38:11.333Z,44.24
2023-05-10T14:39:11.206Z,44.20
2023-05-10T14:40:11.071Z,44.15
2023-05-10T14:41:11.970Z,44.04
2023-05-10T14:42:10.829Z,44.04
2023-05-10T14:43:10.672Z,44.07
2023-05-10T14:44:10.555Z,44.17
2023-05-10T14:45:10.416Z,43.99
2023-05-10T14:46:10.332Z,43.98
2023-05-10T14:47:12.057Z,43.89
2023-05-10T14:48:10.025Z,43.97
2023-05-10T14:49:09.898Z,43.94
2023-05-10T14:50:09.775Z,43.97
2023-05-10T14:51:09.666Z,43.84
2023-05-10T14:52:09.593Z,43.82
2023-05-10T14:53:09.525Z,43.83
2023-05-10T14:54:09.465Z,43.77
2023-05-10T14:55:09.391Z,43.83
2023-05-10T14:56:09.326Z,43.78
2023-05-10T14:57:09.258Z,43.91
2023-05-10T14:58:09.182Z,43.88
2023-05-10T14:59:09.119Z,44.15
2023-05-10T15:00:09.048Z,44.13
2023-05-10T15:01:09.001Z,44.19
2023-05-10T15:02:08.924Z,44.47
2023-05-10T15:03:08.909Z,44.69
2023-05-10T15:04:08.767Z,44.93
2023-05-10T15:05:08.693Z,44.97
2023-05-10T15:06:08.630Z,45.05
2023-05-10T15:07:08.562Z,45.25
2023-05-10T15:08:08.506Z,45.38
2023-05-10T15:09:08.443Z,45.61
2023-05-10T15:10:08.393Z,45.87
2023-05-10T15:11:08.334Z,45.71
2023-05-10T15:12:08.280Z,45.86
2023-05-10T15:13:08.192Z,45.76
2023-05-10T15:14:08.133Z,45.76
2023-05-10T15:15:08.059Z,45.66
2023-05-10T15:16:08.036Z,45.61
2023-05-10T15:17:07.945Z,45.72
2023-05-10T15:18:07.956Z,46.73
2023-05-10T15:19:07.957Z,47.29
2023-05-10T15:20:07.756Z,47.49
2023-05-10T15:21:07.701Z,47.47
2023-05-10T15:22:07.652Z,46.96
2023-05-10T15:23:07.587Z,46.96
2023-05-10T15:24:07.511Z,47.05
2023-05-10T15:25:07.452Z,46.90
2023-05-10T15:26:07.431Z,46.91
2023-05-10T15:27:07.314Z,46.96
2023-05-10T15:28:07.259Z,47.12
2023-05-10T15:29:07.191Z,46.83
2023-05-10T15:30:07.134Z,46.69
2023-05-10T15:31:07.095Z,46.52
2023-05-10T15:32:07.010Z,46.33
2023-05-10T15:33:07.032Z,46.53
2023-05-10T15:34:06.875Z,46.51
2023-05-10T15:35:06.815Z,46.41
2023-05-10T15:36:06.748Z,46.40
2023-05-10T15:37:06.678Z,46.26
2023-05-10T15:38:06.619Z,46.37
2023-05-10T15:39:06.551Z,46.26
2023-05-10T15:40:06.516Z,46.20
2023-05-10T15:41:06.412Z,46.22
2023-05-10T15:42:06.359Z,46.11
2023-05-10T15:43:06.300Z,46.17
2023-05-10T15:44:06.232Z,46.15
2023-05-10T15:45:06.167Z,46.11
2023-05-10T15:46:06.116Z,45.98
2023-05-10T15:47:06.128Z,46.04
2023-05-10T15:48:06.075Z,46.04
2023-05-10T15:49:05.917Z,46.02
2023-05-10T15:50:05.844Z,45.96
2023-05-10T15:51:05.782Z,45.96
2023-05-10T15:52:05.711Z,45.91
2023-05-10T15:53:05.673Z,45.92
2023-05-10T15:54:07.508Z,45.89
2023-05-10T15:55:05.633Z,45.86
2023-05-10T15:56:05.568Z,45.83
2023-05-10T15:57:05.514Z,45.85
2023-05-10T15:58:05.433Z,45.85
2023-05-10T15:59:05.360Z,45.78
2023-05-10T16:00:05.288Z,45.78
2023-05-10T16:01:05.313Z,45.78
2023-05-10T16:02:05.180Z,45.76
2023-05-10T16:03:05.220Z,45.71
2023-05-10T16:04:05.012Z,45.73
2023-05-10T16:05:04.964Z,45.71
2023-05-10T16:06:04.874Z,45.71
2023-05-10T16:07:04.832Z,45.72
2023-05-10T16:08:04.736Z,45.67
2023-05-10T16:09:04.674Z,45.66
2023-05-10T16:10:04.580Z,45.68
2023-05-10T16:11:04.527Z,45.66
2023-05-10T16:12:04.441Z,45.62
2023-05-10T16:13:04.377Z,45.61
2023-05-10T16:14:05.672Z,45.61
2023-05-10T16:15:04.163Z,45.61
2023-05-10T16:16:04.084Z,45.64
2023-05-10T16:17:03.972Z,45.61
2023-05-10T16:18:03.884Z,45.57
2023-05-10T16:19:03.716Z,45.56
2023-05-10T16:20:03.597Z,45.55
2023-05-10T16:21:03.399Z,45.55
2023-05-10T16:22:03.264Z,45.60
2023-05-10T16:23:03.142Z,45.53
2023-05-10T16:24:03.022Z,45.55
2023-05-10T16:25:02.882Z,45.54
2023-05-10T16:26:02.771Z,45.50
2023-05-10T16:27:02.630Z,45.48
2023-05-10T16:28:02.516Z,45.47
2023-05-10T16:29:02.389Z,45.50
2023-05-10T16:30:02.320Z,45.49
2023-05-10T16:31:02.176Z,45.49
2023-05-10T16:32:02.002Z,45.48
2023-05-10T16:33:01.921Z,45.47
2023-05-10T16:34:01.749Z,45.47
2023-05-10T16:35:01.679Z,45.47
2023-05-10T16:36:01.487Z,45.44
2023-05-10T16:37:01.374Z,45.41
2023-05-10T16:38:01.275Z,45.39
2023-05-10T16:39:01.124Z,45.42
2023-05-10T16:40:00.996Z,45.38
2023-05-10T16:41:00.855Z,45.35
2023-05-10T16:42:00.735Z,45.35
2023-05-10T16:43:00.609Z,45.37
2023-05-10T16:44:00.473Z,45.37
2023-05-10T16:45:00.342Z,45.37
2023-05-10T16:46:00.295Z,45.37
2023-05-10T16:47:00.143Z,45.34
2023-05-10T16:48:00.056Z,45.38
2023-05-10T16:48:59.826Z,45.34
2023-05-10T16:49:59.740Z,45.32
2023-05-10T16:50:59.582Z,45.32
2023-05-10T16:51:59.448Z,45.33
2023-05-10T16:52:59.570Z,45.32
2023-05-10T16:53:59.199Z,45.29
2023-05-10T16:54:59.124Z,45.27
2023-05-10T16:55:59.070Z,45.28
2023-05-10T16:56:59.013Z,45.30
2023-05-10T16:57:58.959Z,45.31
2023-05-10T16:58:58.875Z,45.30
2023-05-10T16:59:58.811Z,45.27
2023-05-10T17:00:58.747Z,45.28
2023-05-10T17:01:58.764Z,45.28
2023-05-10T17:02:58.710Z,45.27
2023-05-10T17:03:58.715Z,45.25
2023-05-10T17:04:58.479Z,45.26
2023-05-10T17:05:58.652Z,45.27
2023-05-10T17:06:58.363Z,45.24
2023-05-10T17:07:58.282Z,45.22
2023-05-10T17:08:58.222Z,45.21
2023-05-10T17:09:58.148Z,45.22
2023-05-10T17:10:58.073Z,45.23
2023-05-10T17:11:58.024Z,45.23
2023-05-10T17:12:58.160Z,45.22
2023-05-10T17:13:57.877Z,45.22
2023-05-10T17:14:57.813Z,45.20
2023-05-10T17:15:57.912Z,45.25
2023-05-10T17:16:57.733Z,45.19
2023-05-10T17:17:57.670Z,45.22
2023-05-10T17:18:57.653Z,45.23
2023-05-10T17:19:57.494Z,45.21
2023-05-10T17:20:57.429Z,45.19
2023-05-10T17:21:57.359Z,45.20
2023-05-10T17:22:57.533Z,45.19
2023-05-10T17:23:57.230Z,45.20
2023-05-10T17:24:57.200Z,45.17
2023-05-10T17:25:58.070Z,45.16
2023-05-10T17:26:57.060Z,45.19
2023-05-10T17:27:56.985Z,45.19
2023-05-10T17:28:56.906Z,45.19
2023-05-10T17:29:56.836Z,45.17
2023-05-10T17:30:56.777Z,45.19
2023-05-10T17:31:56.804Z,45.19
2023-05-10T17:32:56.697Z,45.17
2023-05-10T17:33:56.575Z,45.18
2023-05-10T17:34:56.518Z,45.19
2023-05-10T17:35:56.437Z,45.18
2023-05-10T17:36:56.370Z,45.17
2023-05-10T17:37:56.311Z,45.16
2023-05-10T17:38:56.235Z,45.16
2023-05-10T17:39:56.173Z,45.16
2023-05-10T17:40:56.094Z,45.16
2023-05-10T17:41:56.034Z,45.14
2023-05-10T17:42:56.054Z,45.16
2023-05-10T17:43:55.906Z,45.16
2023-05-10T17:44:55.836Z,45.12
2023-05-10T17:45:55.828Z,45.15
2023-05-10T17:46:55.702Z,45.14
2023-05-10T17:47:55.693Z,45.12
2023-05-10T17:48:55.575Z,45.12
2023-05-10T17:49:55.500Z,45.13
2023-05-10T17:50:55.435Z,45.14
2023-05-10T17:51:55.379Z,45.11
2023-05-10T17:52:55.307Z,45.13
2023-05-10T17:53:55.242Z,45.11
2023-05-10T17:54:55.197Z,45.10
2023-05-10T17:55:55.122Z,45.10
2023-05-10T17:56:55.044Z,45.08
2023-05-10T17:57:55.016Z,45.08
2023-05-10T17:58:54.947Z,45.12
2023-05-10T17:59:54.875Z,45.08
2023-05-10T18:00:54.844Z,45.11
2023-05-10T18:01:54.741Z,45.08
2023-05-10T18:02:54.729Z,45.08
2023-05-10T18:03:54.614Z,45.12
2023-05-10T18:04:55.675Z,45.09
2023-05-10T18:05:54.549Z,45.07
2023-05-10T18:06:54.429Z,45.08
2023-05-10T18:07:54.364Z,45.09
2023-05-10T18:08:54.311Z,45.07
2023-05-10T18:09:54.225Z,45.06
2023-05-10T18:10:54.166Z,45.08
2023-05-10T18:11:54.098Z,45.04
2023-05-10T18:12:54.042Z,45.09
2023-05-10T18:13:53.969Z,45.06
2023-05-10T18:14:53.894Z,45.08
2023-05-10T18:15:53.834Z,45.04
2023-05-10T18:16:53.791Z,45.05
2023-05-10T18:17:53.742Z,45.04
2023-05-10T18:18:53.704Z,45.04
2023-05-10T18:19:53.609Z,45.03
2023-05-10T18:20:53.518Z,45.06